Moose River, Canada
Current Conditions -  °F | °C
As of 12:00 AM on Friday 31 Oct 2014 (Local Time) from CYMO Reporting Station
Overcast Overcast  
Wind Chill: 20°   Ceiling: 6000
Heat Index: 28°   Visibility: 9mi
Dew Point: 27°   Wind: 8mph
Humidity: 93%   Direction: 310°NW
Pressure: 30.1"   Gusts: NA
Location:  50.8°N, 81.28°W
Report Text: CYMO 310400Z AUTO 31007KT 9SM BKN060 OVC140 M02/M03 A3010 RMK SLP192
Loading
Personal Weather Stations






























Interactive Weather Map
Tropical Storm Tracking
New forecast layout! Learn more

10-Day Weather Forecast

Advertisements
Track Severe Weather on mobile